createdAt,value
2018-05-12T00:01:12.521Z,99955.66
2018-05-12T00:03:40.158Z,99957.89
2018-05-12T00:06:07.752Z,99961.91
2018-05-12T00:08:35.338Z,99950.70
2018-05-12T00:11:02.963Z,99957.01
2018-05-12T00:13:30.548Z,99960.81
2018-05-12T00:15:58.165Z,99955.91
2018-05-12T00:18:25.795Z,99959.23
2018-05-12T00:20:53.396Z,99959.84
2018-05-12T00:23:20.985Z,99966.31
2018-05-12T00:25:48.671Z,99962.05
2018-05-12T00:28:16.277Z,99964.33
2018-05-12T00:30:43.861Z,99955.56
2018-05-12T00:33:11.492Z,99958.27
2018-05-12T00:35:39.088Z,99962.06
2018-05-12T00:38:06.685Z,99963.86
2018-05-12T00:40:34.308Z,99964.27
2018-05-12T00:43:02.011Z,99954.81
2018-05-12T00:45:29.535Z,99957.77
2018-05-12T00:47:57.152Z,99963.70
2018-05-12T00:50:24.749Z,99959.67
2018-05-12T00:52:52.326Z,99955.24
2018-05-12T00:55:20.005Z,99951.03
2018-05-12T00:57:47.589Z,99952.55
2018-05-12T01:00:15.171Z,99951.66
2018-05-12T01:02:42.796Z,99956.63
2018-05-12T01:05:10.393Z,99961.36
2018-05-12T01:07:37.978Z,99959.94
2018-05-12T01:10:05.607Z,99959.89
2018-05-12T01:12:33.189Z,99961.55
2018-05-12T01:15:00.784Z,99959.72
2018-05-12T01:17:28.435Z,99962.36
2018-05-12T01:19:56.020Z,99955.98
2018-05-12T01:22:23.625Z,99957.41
2018-05-12T01:24:51.258Z,99963.99
2018-05-12T01:27:18.865Z,99961.08
2018-05-12T01:29:46.443Z,99966.68
2018-05-12T01:32:14.109Z,99962.29
2018-05-12T01:34:41.701Z,99973.55
2018-05-12T01:37:09.291Z,99965.09
2018-05-12T01:39:36.902Z,99973.61
2018-05-12T01:42:04.489Z,99973.08
2018-05-12T01:44:32.078Z,99972.66
2018-05-12T01:46:59.735Z,99971.14
2018-05-12T01:49:27.322Z,99970.73
2018-05-12T01:51:54.912Z,99967.05
2018-05-12T01:54:22.571Z,99971.89
2018-05-12T01:56:50.168Z,99976.84
2018-05-12T01:59:17.761Z,99965.50
2018-05-12T02:01:45.387Z,99961.81
2018-05-12T02:04:12.999Z,99964.69
2018-05-12T02:06:40.592Z,99967.72
2018-05-12T02:09:08.292Z,99967.55
2018-05-12T02:11:35.857Z,99972.05
2018-05-12T02:14:03.484Z,99972.17
2018-05-12T02:16:31.123Z,99970.66
2018-05-12T02:18:58.712Z,99967.42
2018-05-12T02:21:26.314Z,99963.51
2018-05-12T02:23:53.956Z,99963.58
2018-05-12T02:26:21.545Z,99963.46
2018-05-12T02:28:49.135Z,99962.53
2018-05-12T02:31:16.810Z,99951.87
2018-05-12T02:33:44.407Z,99958.06
2018-05-12T02:36:12.046Z,99957.86
2018-05-12T02:38:39.727Z,99958.48
2018-05-12T02:41:07.312Z,99957.23
2018-05-12T02:43:34.888Z,99965.05
2018-05-12T02:46:02.495Z,99968.86
2018-05-12T02:48:30.084Z,99974.80
2018-05-12T02:50:57.667Z,99981.78
2018-05-12T02:53:25.301Z,99983.34
2018-05-12T02:55:52.892Z,99981.07
2018-05-12T02:58:20.473Z,99985.09
2018-05-12T03:00:48.100Z,99990.94
2018-05-12T03:03:15.685Z,99985.53
2018-05-12T03:05:43.276Z,99985.91
2018-05-12T03:08:10.908Z,99988.42
2018-05-12T03:10:38.510Z,99992.86
2018-05-12T03:13:06.109Z,99995.10
2018-05-12T03:15:33.743Z,99992.52
2018-05-12T03:18:01.334Z,99990.95
2018-05-12T03:20:28.976Z,99985.70
2018-05-12T03:22:56.599Z,99984.77
2018-05-12T03:25:24.194Z,99981.33
2018-05-12T03:27:51.801Z,99984.98
2018-05-12T03:30:19.427Z,99990.03
2018-05-12T03:32:47.032Z,99986.59
2018-05-12T03:35:14.626Z,99982.86
2018-05-12T03:37:42.255Z,99988.61
2018-05-12T03:40:09.843Z,99987.58
2018-05-12T03:42:37.428Z,99982.61
2018-05-12T03:45:05.084Z,99987.81
2018-05-12T03:47:32.661Z,99982.79
2018-05-12T03:50:00.256Z,99990.80
2018-05-12T03:52:27.891Z,99986.05
2018-05-12T03:54:55.571Z,99992.42
2018-05-12T03:57:23.165Z,99989.20
2018-05-12T03:59:50.825Z,99982.66
2018-05-12T04:02:18.419Z,99981.33
2018-05-12T04:04:57.868Z,99979.33
2018-05-12T04:07:37.148Z,99988.57
2018-05-12T04:10:16.468Z,99986.05
2018-05-12T04:12:44.051Z,99983.11
2018-05-12T04:15:11.623Z,99983.79
2018-05-12T04:17:39.233Z,99990.70
2018-05-12T04:20:06.817Z,99993.94
2018-05-12T04:22:34.475Z,99987.60
2018-05-12T04:25:02.098Z,99991.96
2018-05-12T04:27:29.685Z,99993.50
2018-05-12T04:29:57.254Z,99996.44
2018-05-12T04:32:24.865Z,99996.52
2018-05-12T04:34:52.456Z,99993.41
2018-05-12T04:37:20.036Z,99992.20
2018-05-12T04:39:47.649Z,99989.38
2018-05-12T04:42:15.228Z,99989.23
2018-05-12T04:44:42.794Z,99986.66
2018-05-12T04:47:10.407Z,99982.97
2018-05-12T04:49:37.996Z,99983.98
2018-05-12T04:52:05.592Z,99990.55
2018-05-12T04:54:33.222Z,99988.34
2018-05-12T04:57:00.807Z,99984.41
2018-05-12T04:59:28.389Z,100001.67
2018-05-12T05:01:56.005Z,99994.80
2018-05-12T05:04:23.603Z,100000.48
2018-05-12T05:06:51.182Z,99992.14
2018-05-12T05:09:18.783Z,99986.94
2018-05-12T05:11:46.353Z,99987.63
2018-05-12T05:14:13.927Z,99980.33
2018-05-12T05:16:41.541Z,99983.33
2018-05-12T05:19:09.124Z,99989.61
2018-05-12T05:21:36.708Z,99994.91
2018-05-12T05:24:04.330Z,99983.34
2018-05-12T05:26:31.932Z,99976.13
2018-05-12T05:28:59.549Z,99971.23
2018-05-12T05:31:27.168Z,99971.88
2018-05-12T05:33:54.755Z,99978.22
2018-05-12T05:36:22.315Z,99978.27
2018-05-12T05:38:49.936Z,99976.47
2018-05-12T05:41:17.507Z,99977.50
2018-05-12T05:43:45.086Z,99980.31
2018-05-12T05:46:12.708Z,99972.47
2018-05-12T05:48:40.298Z,99975.30
2018-05-12T05:51:07.913Z,99975.67
2018-05-12T05:53:35.493Z,99985.75
2018-05-12T05:56:03.070Z,99986.57
2018-05-12T05:58:30.638Z,99971.44
2018-05-12T06:00:58.280Z,99974.77
2018-05-12T06:03:25.860Z,99975.84
2018-05-12T06:05:53.422Z,99974.48
2018-05-12T06:08:21.042Z,99972.79
2018-05-12T06:10:48.600Z,99980.96
2018-05-12T06:13:16.171Z,99977.65
2018-05-12T06:15:43.783Z,99974.11
2018-05-12T06:18:11.403Z,99967.84
2018-05-12T06:20:38.950Z,99968.84
2018-05-12T06:23:06.594Z,99964.14
2018-05-12T06:25:34.168Z,99956.87
2018-05-12T06:28:01.749Z,99956.13
2018-05-12T06:30:29.357Z,99954.05
2018-05-12T06:32:56.972Z,99954.50
2018-05-12T06:35:24.580Z,99952.91
2018-05-12T06:37:52.186Z,99954.67
2018-05-12T06:40:19.766Z,99952.91
2018-05-12T06:42:47.342Z,99951.45
2018-05-12T06:45:14.947Z,99941.16
2018-05-12T06:47:42.515Z,99940.50
2018-05-12T06:50:10.133Z,99938.88
2018-05-12T06:52:37.743Z,99934.17
2018-05-12T06:55:05.312Z,99937.94
2018-05-12T06:57:32.905Z,99934.28
2018-05-12T07:00:00.527Z,99936.34
2018-05-12T07:02:28.094Z,99939.40
2018-05-12T07:04:55.681Z,99943.13
2018-05-12T07:07:23.338Z,99938.69
2018-05-12T07:09:50.907Z,99936.22
2018-05-12T07:12:18.530Z,99938.80
2018-05-12T07:14:46.134Z,99940.02
2018-05-12T07:17:13.712Z,99931.40
2018-05-12T07:19:41.304Z,99932.61
2018-05-12T07:22:08.920Z,99938.58
2018-05-12T07:24:36.497Z,99932.94
2018-05-12T07:27:04.048Z,99941.12
2018-05-12T07:29:31.713Z,99933.03
2018-05-12T07:31:59.302Z,99933.08
2018-05-12T07:34:26.884Z,99935.94
2018-05-12T07:36:54.489Z,99936.14
2018-05-12T07:39:22.065Z,99925.92
2018-05-12T07:41:49.637Z,99938.70
2018-05-12T07:44:17.239Z,99944.80
2018-05-12T07:46:44.811Z,99943.92
2018-05-12T07:49:12.386Z,99941.94
2018-05-12T07:51:40.258Z,99936.15
2018-05-12T07:54:07.788Z,99938.02
2018-05-12T07:56:35.381Z,99932.51
2018-05-12T07:59:02.999Z,99929.83
2018-05-12T08:01:30.571Z,99930.70
2018-05-12T08:03:58.160Z,99935.02
2018-05-12T08:06:25.763Z,99925.63
2018-05-12T08:08:53.342Z,99929.51
2018-05-12T08:11:20.932Z,99928.86
2018-05-12T08:13:48.548Z,99928.44
2018-05-12T08:16:16.175Z,99920.56
2018-05-12T08:18:43.763Z,99921.55
2018-05-12T08:21:11.382Z,99925.59
2018-05-12T08:23:38.956Z,99925.38
2018-05-12T08:26:06.602Z,99915.88
2018-05-12T08:28:34.218Z,99917.80
2018-05-12T08:31:01.807Z,99918.45
2018-05-12T08:33:29.374Z,99919.43
2018-05-12T08:35:57.066Z,99918.13
2018-05-12T08:38:24.638Z,99912.00
2018-05-12T08:40:52.218Z,99912.50
2018-05-12T08:43:20.740Z,99916.14
2018-05-12T08:45:48.309Z,99916.50
2018-05-12T08:48:15.962Z,99914.03
2018-05-12T08:50:43.531Z,99913.69
2018-05-12T08:53:11.095Z,99914.80
2018-05-12T08:55:38.681Z,99906.06
2018-05-12T08:58:06.283Z,99907.63
2018-05-12T09:00:33.855Z,99905.59
2018-05-12T09:03:01.432Z,99905.73
2018-05-12T09:05:29.049Z,99894.27
2018-05-12T09:07:56.673Z,99897.62
2018-05-12T09:10:24.252Z,99895.27
2018-05-12T09:12:52.006Z,99890.96
2018-05-12T09:15:19.645Z,99888.64
2018-05-12T09:17:47.215Z,99893.46
2018-05-12T09:20:14.834Z,99888.95
2018-05-12T09:22:42.429Z,99884.88
2018-05-12T09:25:10.018Z,99881.81
2018-05-12T09:27:37.634Z,99878.75
2018-05-12T09:30:05.212Z,99876.52
2018-05-12T09:32:32.799Z,99879.39
2018-05-12T09:35:00.432Z,99872.63
2018-05-12T09:37:28.011Z,99884.45
2018-05-12T09:39:55.589Z,99880.03
2018-05-12T09:42:23.254Z,99876.60
2018-05-12T09:44:50.854Z,99872.52
2018-05-12T09:47:18.401Z,99863.16
2018-05-12T09:49:46.027Z,99870.62
2018-05-12T09:52:13.622Z,99863.00
2018-05-12T09:54:41.199Z,99854.36
2018-05-12T09:57:08.833Z,99850.84
2018-05-12T09:59:36.662Z,99848.77
2018-05-12T10:02:04.214Z,99843.56
2018-05-12T10:04:31.828Z,99847.22
2018-05-12T10:06:59.403Z,99846.48
2018-05-12T10:09:26.985Z,99842.75
2018-05-12T10:11:54.582Z,99843.20
2018-05-12T10:14:22.152Z,99853.12
2018-05-12T10:16:49.807Z,99854.58
2018-05-12T10:19:17.469Z,99844.27
2018-05-12T10:21:45.058Z,99847.72
2018-05-12T10:24:12.687Z,99844.56
2018-05-12T10:26:40.289Z,99837.65
2018-05-12T10:29:07.865Z,99836.25
2018-05-12T10:31:35.443Z,99839.10
2018-05-12T10:34:03.070Z,99838.55
2018-05-12T10:36:30.652Z,99831.98
2018-05-12T10:38:58.286Z,99830.32
2018-05-12T10:41:26.019Z,99827.75
2018-05-12T10:43:53.630Z,99834.22
2018-05-12T10:46:21.217Z,99827.89
2018-05-12T10:48:48.905Z,99833.37
2018-05-12T10:51:16.482Z,99825.70
2018-05-12T10:53:44.077Z,99830.44
2018-05-12T10:56:11.763Z,99825.16
2018-05-12T10:58:39.437Z,99818.09
2018-05-12T11:01:07.315Z,99813.17
2018-05-12T11:03:34.929Z,99814.17
2018-05-12T11:06:02.496Z,99802.22
2018-05-12T11:08:30.178Z,99794.66
2018-05-12T11:10:57.804Z,99797.85
2018-05-12T11:13:25.409Z,99793.16
2018-05-12T11:15:53.088Z,99792.28
2018-05-12T11:18:20.754Z,99782.84
2018-05-12T11:20:48.356Z,99784.06
2018-05-12T11:23:16.060Z,99784.36
2018-05-12T11:25:43.731Z,99792.53
2018-05-12T11:28:11.294Z,99783.12
2018-05-12T11:30:38.868Z,99787.37
2018-05-12T11:33:10.051Z,99784.17
2018-05-12T11:35:40.775Z,99780.02
2018-05-12T11:38:12.487Z,99774.05
2018-05-12T11:40:40.341Z,99777.57
2018-05-12T11:43:07.926Z,99765.48
2018-05-12T11:45:35.553Z,99770.86
2018-05-12T11:48:03.140Z,99767.72
2018-05-12T11:50:30.779Z,99764.48
2018-05-12T11:52:58.552Z,99761.80
2018-05-12T11:55:26.111Z,99762.00
2018-05-12T11:57:53.685Z,99763.81
2018-05-12T12:00:21.304Z,99750.76
2018-05-12T12:02:48.884Z,99748.02
2018-05-12T12:05:16.450Z,99742.31
2018-05-12T12:07:44.051Z,99739.25
2018-05-12T12:10:11.792Z,99737.57
2018-05-12T12:12:39.358Z,99731.43
2018-05-12T12:15:07.105Z,99725.78
2018-05-12T12:17:34.775Z,99726.80
2018-05-12T12:20:02.445Z,99713.75
2018-05-12T12:22:30.067Z,99713.51
2018-05-12T12:24:57.631Z,99707.67
2018-05-12T12:27:25.206Z,99703.52
2018-05-12T12:29:52.892Z,99702.06
2018-05-12T12:32:20.549Z,99696.03
2018-05-12T12:34:48.190Z,99688.12
2018-05-12T12:37:15.802Z,99677.36
2018-05-12T12:39:43.533Z,99679.39
2018-05-12T12:42:11.181Z,99672.09
2018-05-12T12:44:38.800Z,99667.06
2018-05-12T12:47:06.372Z,99662.90
2018-05-12T12:49:33.975Z,99667.91
2018-05-12T12:52:01.586Z,99661.56
2018-05-12T12:54:29.289Z,99659.66
2018-05-12T12:56:56.878Z,99660.34
2018-05-12T12:59:24.588Z,99656.41
2018-05-12T13:01:52.276Z,99652.50
2018-05-12T13:04:19.932Z,99644.73
2018-05-12T13:06:47.601Z,99648.59
2018-05-12T13:09:15.188Z,99644.13
2018-05-12T13:11:42.939Z,99634.86
2018-05-12T13:14:10.556Z,99627.52
2018-05-12T13:16:38.148Z,99622.45
2018-05-12T13:19:05.919Z,99618.94
2018-05-12T13:21:33.734Z,99616.20
2018-05-12T13:24:01.453Z,99621.44
2018-05-12T13:26:29.099Z,99612.14
2018-05-12T13:28:56.731Z,99615.38
2018-05-12T13:31:24.321Z,99606.52
2018-05-12T13:33:52.094Z,99616.50
2018-05-12T13:36:19.754Z,99604.44
2018-05-12T13:38:47.637Z,99610.34
2018-05-12T13:41:15.475Z,99602.00
2018-05-12T13:43:43.151Z,99598.54
2018-05-12T13:46:10.748Z,99592.99
2018-05-12T13:48:38.325Z,99596.22
2018-05-12T13:51:05.937Z,99594.02
2018-05-12T13:53:33.584Z,99591.72
2018-05-12T13:56:01.413Z,99592.33
2018-05-12T13:58:28.954Z,99591.13
2018-05-12T14:00:56.534Z,99587.92
2018-05-12T14:03:24.153Z,99583.06
2018-05-12T14:05:52.005Z,99581.37
2018-05-12T14:08:19.885Z,99579.77
2018-05-12T14:10:47.464Z,99575.19
2018-05-12T14:13:15.205Z,99574.98
2018-05-12T14:15:42.781Z,99576.38
2018-05-12T14:18:10.520Z,99575.81
2018-05-12T14:20:38.404Z,99577.72
2018-05-12T14:23:06.009Z,99581.94
2018-05-12T14:25:33.726Z,99585.02
2018-05-12T14:28:01.376Z,99579.70
2018-05-12T14:30:29.043Z,99580.17
2018-05-12T14:32:56.712Z,99584.78
2018-05-12T14:35:24.343Z,99578.50
2018-05-12T14:37:51.925Z,99576.11
2018-05-12T14:40:19.513Z,99573.38
2018-05-12T14:42:47.213Z,99566.36
2018-05-12T14:45:14.788Z,99563.80
2018-05-12T14:47:42.366Z,99562.66
2018-05-12T14:50:10.130Z,99565.44
2018-05-12T14:52:37.703Z,99552.64
2018-05-12T14:55:05.646Z,99563.39
2018-05-12T14:57:33.328Z,99558.91
2018-05-12T15:00:00.990Z,99562.61
2018-05-12T15:02:28.724Z,99557.14
2018-05-12T15:04:56.521Z,99548.29
2018-05-12T15:07:24.185Z,99555.84
2018-05-12T15:09:51.800Z,99555.84
2018-05-12T15:12:19.464Z,99553.41
2018-05-12T15:14:47.054Z,99549.13
2018-05-12T15:17:14.656Z,99554.62
2018-05-12T15:19:42.259Z,99552.02
2018-05-12T15:22:09.942Z,99546.80
2018-05-12T15:24:37.620Z,99541.45
2018-05-12T15:27:05.267Z,99546.63
2018-05-12T15:29:32.945Z,99552.30
2018-05-12T15:32:00.592Z,99553.05
2018-05-12T15:34:28.197Z,99551.59
2018-05-12T15:36:55.767Z,99557.51
2018-05-12T15:39:23.349Z,99556.95
2018-05-12T15:41:51.037Z,99558.45
2018-05-12T15:44:18.716Z,99548.84
2018-05-12T15:46:46.378Z,99548.87
2018-05-12T15:49:14.228Z,99552.88
2018-05-12T15:51:41.894Z,99556.58
2018-05-12T15:54:09.479Z,99552.39
2018-05-12T15:56:37.229Z,99553.36
2018-05-12T15:59:04.836Z,99549.69
2018-05-12T16:01:32.761Z,99551.87
2018-05-12T16:04:00.392Z,99549.23
2018-05-12T16:06:28.084Z,99547.02
2018-05-12T16:08:55.658Z,99554.47
2018-05-12T16:11:23.271Z,99554.48
2018-05-12T16:13:50.842Z,99550.87
2018-05-12T16:16:18.532Z,99554.94
2018-05-12T16:18:46.143Z,99552.02
2018-05-12T16:21:13.852Z,99558.05
2018-05-12T16:23:41.419Z,99558.11
2018-05-12T16:26:09.041Z,99562.45
2018-05-12T16:28:36.819Z,99554.50
2018-05-12T16:31:04.399Z,99558.91
2018-05-12T16:33:32.155Z,99561.05
2018-05-12T16:35:59.771Z,99559.44
2018-05-12T16:38:27.490Z,99561.51
2018-05-12T16:40:55.109Z,99567.44
2018-05-12T16:43:22.678Z,99562.09
2018-05-12T16:45:50.256Z,99570.79
2018-05-12T16:48:17.895Z,99578.11
2018-05-12T16:50:45.539Z,99576.54
2018-05-12T16:53:13.243Z,99575.45
2018-05-12T16:55:41.113Z,99579.48
2018-05-12T16:58:08.777Z,99579.91
2018-05-12T17:00:36.401Z,99582.22
2018-05-12T17:03:04.016Z,99577.34
2018-05-12T17:05:31.761Z,99581.98
2018-05-12T17:07:59.641Z,99578.39
2018-05-12T17:10:27.297Z,99584.98
2018-05-12T17:12:54.951Z,99586.70
2018-05-12T17:15:22.624Z,99584.86
2018-05-12T17:17:50.276Z,99587.93
2018-05-12T17:20:17.871Z,99586.35
2018-05-12T17:22:45.453Z,99591.98
2018-05-12T17:25:13.088Z,99594.27
2018-05-12T17:27:40.734Z,99585.64
2018-05-12T17:30:08.386Z,99591.55
2018-05-12T17:32:36.001Z,99586.11
2018-05-12T17:35:03.593Z,99588.20
2018-05-12T17:37:31.164Z,99588.38
2018-05-12T17:39:58.828Z,99595.25
2018-05-12T17:42:26.506Z,99603.88
2018-05-12T17:44:54.152Z,99601.73
2018-05-12T17:47:21.936Z,99601.22
2018-05-12T17:49:49.686Z,99615.22
2018-05-12T17:52:17.260Z,99607.06
2018-05-12T17:54:44.867Z,99612.64
2018-05-12T17:57:12.468Z,99615.92
2018-05-12T17:59:40.038Z,99616.99
2018-05-12T18:02:07.799Z,99613.20
2018-05-12T18:04:35.468Z,99616.50
2018-05-12T18:07:03.044Z,99618.30
2018-05-12T18:09:30.685Z,99631.23
2018-05-12T18:11:58.433Z,99628.41
2018-05-12T18:14:26.102Z,99635.09
2018-05-12T18:16:53.752Z,99641.63
2018-05-12T18:19:21.334Z,99634.56
2018-05-12T18:21:48.901Z,99628.88
2018-05-12T18:24:16.572Z,99637.84
2018-05-12T18:26:44.155Z,99627.27
2018-05-12T18:29:11.714Z,99633.78
2018-05-12T18:31:39.317Z,99628.64
2018-05-12T18:34:06.987Z,99635.84
2018-05-12T18:36:34.850Z,99637.88
2018-05-12T18:39:02.524Z,99638.58
2018-05-12T18:41:30.108Z,99638.99
2018-05-12T18:43:57.669Z,99637.51
2018-05-12T18:46:25.307Z,99646.45
2018-05-12T18:48:52.951Z,99650.14
2018-05-12T18:51:20.512Z,99640.31
2018-05-12T18:53:48.103Z,99648.88
2018-05-12T18:56:15.740Z,99651.87
2018-05-12T18:58:43.404Z,99646.15
2018-05-12T19:01:11.076Z,99651.86
2018-05-12T19:03:38.724Z,99646.70
2018-05-12T19:06:06.304Z,99642.34
2018-05-12T19:08:33.911Z,99644.39
2018-05-12T19:11:01.493Z,99650.75
2018-05-12T19:13:29.084Z,99646.42
2018-05-12T19:15:56.692Z,99645.05
2018-05-12T19:18:24.306Z,99651.01
2018-05-12T19:20:51.866Z,99645.28
2018-05-12T19:23:19.612Z,99653.72
2018-05-12T19:25:47.186Z,99659.14
2018-05-12T19:28:14.943Z,99661.70
2018-05-12T19:30:42.539Z,99660.33
2018-05-12T19:33:10.107Z,99659.54
2018-05-12T19:35:37.944Z,99658.00
2018-05-12T19:38:05.787Z,99663.00
2018-05-12T19:40:33.459Z,99665.83
2018-05-12T19:43:01.112Z,99668.42
2018-05-12T19:45:28.704Z,99672.63
2018-05-12T19:47:56.261Z,99667.61
2018-05-12T19:50:23.841Z,99667.05
2018-05-12T19:52:51.435Z,99668.78
2018-05-12T19:55:19.022Z,99672.92
2018-05-12T19:57:46.598Z,99669.91
2018-05-12T20:00:14.259Z,99673.61
2018-05-12T20:02:41.839Z,99677.94
2018-05-12T20:05:09.520Z,99679.97
2018-05-12T20:07:37.124Z,99679.91
2018-05-12T20:10:04.701Z,99676.25
2018-05-12T20:12:32.278Z,99676.62
2018-05-12T20:14:59.992Z,99680.52
2018-05-12T20:17:27.604Z,99674.13
2018-05-12T20:19:55.363Z,99667.14
2018-05-12T20:22:23.145Z,99675.53
2018-05-12T20:24:50.762Z,99673.05
2018-05-12T20:27:18.379Z,99672.65
2018-05-12T20:29:46.417Z,99670.67
2018-05-12T20:32:14.250Z,99670.39
2018-05-12T20:34:42.857Z,99673.05
2018-05-12T20:37:10.756Z,99666.65
2018-05-12T20:39:38.383Z,99672.83
2018-05-12T20:42:05.975Z,99684.19
2018-05-12T20:44:33.574Z,99676.61
2018-05-12T20:47:01.202Z,99688.32
2018-05-12T20:49:28.778Z,99687.47
2018-05-12T20:51:56.381Z,99687.16
2018-05-12T20:54:23.972Z,99690.50
2018-05-12T20:56:51.557Z,99684.27
2018-05-12T20:59:19.149Z,99682.69
2018-05-12T21:01:46.825Z,99681.83
2018-05-12T21:04:14.408Z,99678.95
2018-05-12T21:06:42.037Z,99681.55
2018-05-12T21:09:09.636Z,99685.07
2018-05-12T21:11:37.225Z,99677.96
2018-05-12T21:14:04.859Z,99678.50
2018-05-12T21:16:32.458Z,99688.20
2018-05-12T21:19:00.169Z,99690.63
2018-05-12T21:21:27.774Z,99688.14
2018-05-12T21:23:55.441Z,99691.44
2018-05-12T21:26:23.036Z,99688.11
2018-05-12T21:28:50.716Z,99691.78
2018-05-12T21:31:18.274Z,99687.90
2018-05-12T21:33:45.848Z,99678.05
2018-05-12T21:36:13.499Z,99681.92
2018-05-12T21:38:41.056Z,99675.30
2018-05-12T21:41:08.650Z,99674.96
2018-05-12T21:43:36.264Z,99680.35
2018-05-12T21:46:03.857Z,99676.84
2018-05-12T21:48:31.469Z,99685.44
2018-05-12T21:50:59.084Z,99680.55
2018-05-12T21:53:26.653Z,99677.92
2018-05-12T21:55:54.260Z,99671.77
2018-05-12T21:58:22.152Z,99664.45
2018-05-12T22:00:49.748Z,99664.00
2018-05-12T22:03:17.351Z,99658.26
2018-05-12T22:05:44.962Z,99664.80
2018-05-12T22:08:12.627Z,99663.58
2018-05-12T22:10:40.197Z,99664.48
2018-05-12T22:13:07.900Z,99662.83
2018-05-12T22:15:35.494Z,99658.50
2018-05-12T22:18:03.139Z,99655.92
2018-05-12T22:20:30.860Z,99652.69
2018-05-12T22:22:59.184Z,99650.16
2018-05-12T22:25:26.850Z,99654.19
2018-05-12T22:27:54.500Z,99653.91
2018-05-12T22:30:22.135Z,99653.59
2018-05-12T22:32:49.708Z,99649.01
2018-05-12T22:35:17.320Z,99653.23
2018-05-12T22:37:44.894Z,99655.70
2018-05-12T22:40:12.519Z,99650.67
2018-05-12T22:42:40.275Z,99655.19
2018-05-12T22:45:07.919Z,99654.03
2018-05-12T22:47:35.501Z,99655.58
2018-05-12T22:50:03.108Z,99657.00
2018-05-12T22:52:30.856Z,99657.42
2018-05-12T22:54:58.443Z,99665.18
2018-05-12T22:57:26.231Z,99661.25
2018-05-12T22:59:53.836Z,99661.28
2018-05-12T23:02:21.403Z,99663.60
2018-05-12T23:04:49.032Z,99657.31
2018-05-12T23:07:16.645Z,99656.13
2018-05-12T23:09:44.255Z,99657.42
2018-05-12T23:12:11.890Z,99657.66
2018-05-12T23:14:39.482Z,99664.94
2018-05-12T23:17:07.052Z,99653.22
2018-05-12T23:19:34.684Z,99661.15
2018-05-12T23:22:02.276Z,99665.05
2018-05-12T23:24:29.850Z,99663.75
2018-05-12T23:26:57.460Z,99669.12
2018-05-12T23:29:25.027Z,99670.92
2018-05-12T23:31:52.604Z,99670.97
2018-05-12T23:34:20.236Z,99668.95
2018-05-12T23:36:47.846Z,99673.72
2018-05-12T23:39:15.438Z,99670.04
2018-05-12T23:41:43.057Z,99664.11
2018-05-12T23:44:10.633Z,99665.58
2018-05-12T23:46:38.218Z,99659.18
2018-05-12T23:49:05.823Z,99657.99
2018-05-12T23:51:33.488Z,99650.84
2018-05-12T23:54:01.059Z,99653.53
2018-05-12T23:56:28.661Z,99659.67
2018-05-12T23:58:56.320Z,99650.63
